sensor_id;sensor_type;location;lat;lon;timestamp;temperature;humidity
573;DHT22;271;51.114;13.780;2023-08-17T00:02:45;21.30;2.80
573;DHT22;271;51.114;13.780;2023-08-17T00:05:33;21.30;1.00
573;DHT22;271;51.114;13.780;2023-08-17T00:08:20;21.20;5.20
573;DHT22;271;51.114;13.780;2023-08-17T00:11:09;21.20;4.10
573;DHT22;271;51.114;13.780;2023-08-17T00:13:57;21.20;4.00
573;DHT22;271;51.114;13.780;2023-08-17T00:16:45;21.10;6.10
573;DHT22;271;51.114;13.780;2023-08-17T00:19:32;21.00;9.30
573;DHT22;271;51.114;13.780;2023-08-17T00:22:20;21.00;6.40
573;DHT22;271;51.114;13.780;2023-08-17T00:25:08;21.00;6.30
573;DHT22;271;51.114;13.780;2023-08-17T00:27:57;21.00;4.60
573;DHT22;271;51.114;13.780;2023-08-17T00:30:45;20.90;7.90
573;DHT22;271;51.114;13.780;2023-08-17T00:33:33;20.80;10.70
573;DHT22;271;51.114;13.780;2023-08-17T00:36:20;20.80;7.20
573;DHT22;271;51.114;13.780;2023-08-17T00:39:08;20.80;7.60
573;DHT22;271;51.114;13.780;2023-08-17T00:41:56;20.70;7.90
573;DHT22;271;51.114;13.780;2023-08-17T00:44:45;20.60;11.30
573;DHT22;271;51.114;13.780;2023-08-17T00:47:32;20.60;12.80
573;DHT22;271;51.114;13.780;2023-08-17T00:50:20;20.60;12.30
573;DHT22;271;51.114;13.780;2023-08-17T00:53:08;20.60;12.40
573;DHT22;271;51.114;13.780;2023-08-17T00:56:01;20.60;11.30
573;DHT22;271;51.114;13.780;2023-08-17T00:58:50;20.50;11.40
573;DHT22;271;51.114;13.780;2023-08-17T01:01:39;20.50;11.70
573;DHT22;271;51.114;13.780;2023-08-17T01:04:27;20.50;13.40
573;DHT22;271;51.114;13.780;2023-08-17T01:07:14;20.50;11.40
573;DHT22;271;51.114;13.780;2023-08-17T01:10:04;20.40;13.00
573;DHT22;271;51.114;13.780;2023-08-17T01:13:00;20.30;15.40
573;DHT22;271;51.114;13.780;2023-08-17T01:15:56;20.30;14.90
573;DHT22;271;51.114;13.780;2023-08-17T01:18:48;20.30;13.50
573;DHT22;271;51.114;13.780;2023-08-17T01:21:41;20.20;13.40
573;DHT22;271;51.114;13.780;2023-08-17T01:24:31;20.20;12.30
573;DHT22;271;51.114;13.780;2023-08-17T01:27:19;20.10;11.50
573;DHT22;271;51.114;13.780;2023-08-17T01:30:07;20.10;14.60
573;DHT22;271;51.114;13.780;2023-08-17T01:33:00;20.20;14.30
573;DHT22;271;51.114;13.780;2023-08-17T01:35:56;20.10;9.90
573;DHT22;271;51.114;13.780;2023-08-17T01:38:46;20.20;16.80
573;DHT22;271;51.114;13.780;2023-08-17T01:41:37;20.10;15.30
573;DHT22;271;51.114;13.780;2023-08-17T01:44:26;20.10;13.00
573;DHT22;271;51.114;13.780;2023-08-17T01:47:14;20.00;18.10
573;DHT22;271;51.114;13.780;2023-08-17T01:50:01;20.00;14.40
573;DHT22;271;51.114;13.780;2023-08-17T01:52:49;20.00;18.30
573;DHT22;271;51.114;13.780;2023-08-17T01:55:37;20.10;21.30
573;DHT22;271;51.114;13.780;2023-08-17T01:58:26;20.10;17.30
573;DHT22;271;51.114;13.780;2023-08-17T02:01:14;20.10;17.90
573;DHT22;271;51.114;13.780;2023-08-17T02:04:02;20.10;17.70
573;DHT22;271;51.114;13.780;2023-08-17T02:06:49;20.10;16.30
573;DHT22;271;51.114;13.780;2023-08-17T02:09:37;20.00;16.30
573;DHT22;271;51.114;13.780;2023-08-17T02:12:25;20.00;18.20
573;DHT22;271;51.114;13.780;2023-08-17T02:15:14;20.00;19.10
573;DHT22;271;51.114;13.780;2023-08-17T02:18:02;20.00;17.10
573;DHT22;271;51.114;13.780;2023-08-17T02:20:50;19.90;17.50
573;DHT22;271;51.114;13.780;2023-08-17T02:23:38;19.90;17.80
573;DHT22;271;51.114;13.780;2023-08-17T02:26:25;20.00;17.70
573;DHT22;271;51.114;13.780;2023-08-17T02:29:13;20.00;16.00
573;DHT22;271;51.114;13.780;2023-08-17T02:32:02;20.00;16.80
573;DHT22;271;51.114;13.780;2023-08-17T02:34:50;20.00;15.40
573;DHT22;271;51.114;13.780;2023-08-17T02:37:38;19.90;16.10
573;DHT22;271;51.114;13.780;2023-08-17T02:40:25;19.80;14.60
573;DHT22;271;51.114;13.780;2023-08-17T02:43:13;19.80;15.50
573;DHT22;271;51.114;13.780;2023-08-17T02:46:00;19.80;18.00
573;DHT22;271;51.114;13.780;2023-08-17T02:48:49;19.80;13.40
573;DHT22;271;51.114;13.780;2023-08-17T02:51:37;19.70;11.10
573;DHT22;271;51.114;13.780;2023-08-17T02:54:25;19.80;11.10
573;DHT22;271;51.114;13.780;2023-08-17T02:57:13;19.80;7.30
573;DHT22;271;51.114;13.780;2023-08-17T03:00:00;19.80;7.50
573;DHT22;271;51.114;13.780;2023-08-17T03:02:48;19.80;7.90
573;DHT22;271;51.114;13.780;2023-08-17T03:05:37;19.90;8.80
573;DHT22;271;51.114;13.780;2023-08-17T03:08:25;20.00;8.00
573;DHT22;271;51.114;13.780;2023-08-17T03:11:13;20.00;5.20
573;DHT22;271;51.114;13.780;2023-08-17T03:14:00;20.00;3.60
573;DHT22;271;51.114;13.780;2023-08-17T03:16:48;20.00;2.30
573;DHT22;271;51.114;13.780;2023-08-17T03:19:36;20.10;3.00
573;DHT22;271;51.114;13.780;2023-08-17T03:22:25;20.00;2.20
573;DHT22;271;51.114;13.780;2023-08-17T03:25:12;19.80;2.50
573;DHT22;271;51.114;13.780;2023-08-17T03:28:00;19.90;7.10
573;DHT22;271;51.114;13.780;2023-08-17T03:30:48;19.80;6.20
573;DHT22;271;51.114;13.780;2023-08-17T03:33:36;19.80;6.90
573;DHT22;271;51.114;13.780;2023-08-17T03:36:24;19.80;3.80
573;DHT22;271;51.114;13.780;2023-08-17T03:39:13;19.70;3.80
573;DHT22;271;51.114;13.780;2023-08-17T03:42:01;19.70;7.60
573;DHT22;271;51.114;13.780;2023-08-17T03:44:48;19.70;7.50
573;DHT22;271;51.114;13.780;2023-08-17T03:47:37;19.80;3.90
573;DHT22;271;51.114;13.780;2023-08-17T03:50:27;19.70;6.00
573;DHT22;271;51.114;13.780;2023-08-17T03:53:15;19.70;4.30
573;DHT22;271;51.114;13.780;2023-08-17T03:56:04;19.60;7.30
573;DHT22;271;51.114;13.780;2023-08-17T03:58:53;19.60;7.50
573;DHT22;271;51.114;13.780;2023-08-17T04:01:41;19.50;11.00
573;DHT22;271;51.114;13.780;2023-08-17T04:04:29;19.50;9.30
573;DHT22;271;51.114;13.780;2023-08-17T04:07:21;19.50;10.50
573;DHT22;271;51.114;13.780;2023-08-17T04:10:09;19.50;12.10
573;DHT22;271;51.114;13.780;2023-08-17T04:12:58;19.50;10.60
573;DHT22;271;51.114;13.780;2023-08-17T04:15:45;19.50;6.80
573;DHT22;271;51.114;13.780;2023-08-17T04:18:33;19.60;4.40
573;DHT22;271;51.114;13.780;2023-08-17T04:21:21;19.60;1.00
573;DHT22;271;51.114;13.780;2023-08-17T04:24:08;19.60;3.50
573;DHT22;271;51.114;13.780;2023-08-17T04:26:56;19.70;3.60
573;DHT22;271;51.114;13.780;2023-08-17T04:29:45;19.70;1.60
573;DHT22;271;51.114;13.780;2023-08-17T04:32:33;19.70;3.60
573;DHT22;271;51.114;13.780;2023-08-17T04:35:21;19.80;1.00
573;DHT22;271;51.114;13.780;2023-08-17T04:38:08;19.90;1.60
573;DHT22;271;51.114;13.780;2023-08-17T04:40:56;20.00;1.00
573;DHT22;271;51.114;13.780;2023-08-17T04:43:44;20.10;1.00
573;DHT22;271;51.114;13.780;2023-08-17T04:46:34;20.10;1.00
573;DHT22;271;51.114;13.780;2023-08-17T04:49:22;20.10;1.00
573;DHT22;271;51.114;13.780;2023-08-17T04:52:10;20.20;1.00
573;DHT22;271;51.114;13.780;2023-08-17T04:54:57;20.30;1.00
573;DHT22;271;51.114;13.780;2023-08-17T04:57:45;20.30;1.00
573;DHT22;271;51.114;13.780;2023-08-17T05:00:33;20.40;1.00
573;DHT22;271;51.114;13.780;2023-08-17T05:03:22;20.40;1.00
573;DHT22;271;51.114;13.780;2023-08-17T05:06:10;20.50;1.00
573;DHT22;271;51.114;13.780;2023-08-17T05:08:58;20.60;1.00
573;DHT22;271;51.114;13.780;2023-08-17T05:11:46;20.60;1.00
573;DHT22;271;51.114;13.780;2023-08-17T05:14:33;20.70;1.00
573;DHT22;271;51.114;13.780;2023-08-17T05:17:21;20.70;1.00
573;DHT22;271;51.114;13.780;2023-08-17T05:20:11;20.80;1.00
573;DHT22;271;51.114;13.780;2023-08-17T05:23:00;20.90;1.00
573;DHT22;271;51.114;13.780;2023-08-17T05:25:47;21.00;1.00
573;DHT22;271;51.114;13.780;2023-08-17T05:28:35;21.00;1.00
573;DHT22;271;51.114;13.780;2023-08-17T05:31:23;21.10;1.00
573;DHT22;271;51.114;13.780;2023-08-17T05:34:11;21.20;1.00
573;DHT22;271;51.114;13.780;2023-08-17T05:37:00;21.30;1.00
573;DHT22;271;51.114;13.780;2023-08-17T05:39:49;21.20;1.00
573;DHT22;271;51.114;13.780;2023-08-17T05:42:37;21.10;1.00
573;DHT22;271;51.114;13.780;2023-08-17T05:45:25;21.20;1.00
573;DHT22;271;51.114;13.780;2023-08-17T05:48:12;21.30;1.00
573;DHT22;271;51.114;13.780;2023-08-17T05:51:00;21.30;1.00
573;DHT22;271;51.114;13.780;2023-08-17T05:53:49;21.40;1.00
573;DHT22;271;51.114;13.780;2023-08-17T05:56:37;21.40;1.00
573;DHT22;271;51.114;13.780;2023-08-17T05:59:24;21.50;1.00
573;DHT22;271;51.114;13.780;2023-08-17T06:02:12;21.50;1.00
573;DHT22;271;51.114;13.780;2023-08-17T06:05:00;21.50;1.00
573;DHT22;271;51.114;13.780;2023-08-17T06:07:48;21.60;1.00
573;DHT22;271;51.114;13.780;2023-08-17T06:10:37;21.60;1.00
573;DHT22;271;51.114;13.780;2023-08-17T06:13:25;21.70;1.00
573;DHT22;271;51.114;13.780;2023-08-17T06:16:13;21.70;1.00
573;DHT22;271;51.114;13.780;2023-08-17T06:19:00;21.80;1.00
573;DHT22;271;51.114;13.780;2023-08-17T06:21:48;22.30;1.00
573;DHT22;271;51.114;13.780;2023-08-17T06:24:36;22.70;1.00
573;DHT22;271;51.114;13.780;2023-08-17T06:27:25;23.10;1.00
573;DHT22;271;51.114;13.780;2023-08-17T06:30:13;23.30;1.00
573;DHT22;271;51.114;13.780;2023-08-17T06:33:01;23.60;1.00
573;DHT22;271;51.114;13.780;2023-08-17T06:35:49;23.60;1.00
573;DHT22;271;51.114;13.780;2023-08-17T06:38:36;23.90;1.00
573;DHT22;271;51.114;13.780;2023-08-17T06:41:24;24.60;1.00
573;DHT22;271;51.114;13.780;2023-08-17T06:44:14;25.60;1.00
573;DHT22;271;51.114;13.780;2023-08-17T06:47:02;26.90;1.00
573;DHT22;271;51.114;13.780;2023-08-17T06:49:49;27.90;1.00
573;DHT22;271;51.114;13.780;2023-08-17T06:52:37;27.70;1.00
573;DHT22;271;51.114;13.780;2023-08-17T06:55:25;27.00;1.00
573;DHT22;271;51.114;13.780;2023-08-17T06:58:13;26.40;1.00
573;DHT22;271;51.114;13.780;2023-08-17T07:01:02;26.60;1.00
573;DHT22;271;51.114;13.780;2023-08-17T07:03:50;26.40;1.00
573;DHT22;271;51.114;13.780;2023-08-17T07:06:38;25.90;1.00
573;DHT22;271;51.114;13.780;2023-08-17T07:09:27;26.10;1.00
573;DHT22;271;51.114;13.780;2023-08-17T07:12:15;26.80;1.00
573;DHT22;271;51.114;13.780;2023-08-17T07:15:03;28.10;1.00
573;DHT22;271;51.114;13.780;2023-08-17T07:17:53;29.20;1.00
573;DHT22;271;51.114;13.780;2023-08-17T07:20:41;29.80;1.00
573;DHT22;271;51.114;13.780;2023-08-17T07:23:28;29.80;1.00
573;DHT22;271;51.114;13.780;2023-08-17T07:26:16;28.90;1.00
573;DHT22;271;51.114;13.780;2023-08-17T07:29:05;28.00;1.00
573;DHT22;271;51.114;13.780;2023-08-17T07:31:53;27.50;1.00
573;DHT22;271;51.114;13.780;2023-08-17T07:34:42;27.50;1.00
573;DHT22;271;51.114;13.780;2023-08-17T07:37:30;27.80;1.00
573;DHT22;271;51.114;13.780;2023-08-17T07:40:19;28.50;1.00
573;DHT22;271;51.114;13.780;2023-08-17T07:43:07;29.20;1.00
573;DHT22;271;51.114;13.780;2023-08-17T07:45:55;30.10;1.00
573;DHT22;271;51.114;13.780;2023-08-17T07:48:43;30.90;1.00
573;DHT22;271;51.114;13.780;2023-08-17T07:51:32;31.30;1.00
573;DHT22;271;51.114;13.780;2023-08-17T07:54:20;31.90;1.00
573;DHT22;271;51.114;13.780;2023-08-17T07:57:07;32.70;1.00
573;DHT22;271;51.114;13.780;2023-08-17T07:59:55;33.10;1.00
573;DHT22;271;51.114;13.780;2023-08-17T08:02:43;33.50;1.00
573;DHT22;271;51.114;13.780;2023-08-17T08:05:31;33.40;1.00
573;DHT22;271;51.114;13.780;2023-08-17T08:08:20;33.10;1.00
573;DHT22;271;51.114;13.780;2023-08-17T08:11:09;33.30;1.00
573;DHT22;271;51.114;13.780;2023-08-17T08:13:57;33.60;1.00
573;DHT22;271;51.114;13.780;2023-08-17T08:16:46;33.30;1.00
573;DHT22;271;51.114;13.780;2023-08-17T08:19:35;33.50;1.00
573;DHT22;271;51.114;13.780;2023-08-17T08:22:22;33.70;1.00
573;DHT22;271;51.114;13.780;2023-08-17T08:25:12;33.40;1.00
573;DHT22;271;51.114;13.780;2023-08-17T08:28:00;33.20;1.00
573;DHT22;271;51.114;13.780;2023-08-17T08:30:48;33.10;1.00
573;DHT22;271;51.114;13.780;2023-08-17T08:33:35;32.90;1.00
573;DHT22;271;51.114;13.780;2023-08-17T08:36:23;32.80;1.00
573;DHT22;271;51.114;13.780;2023-08-17T08:39:11;32.50;1.00
573;DHT22;271;51.114;13.780;2023-08-17T08:42:01;32.20;1.00
573;DHT22;271;51.114;13.780;2023-08-17T08:44:49;31.90;1.00
573;DHT22;271;51.114;13.780;2023-08-17T08:47:37;31.80;1.00
573;DHT22;271;51.114;13.780;2023-08-17T08:50:26;31.90;1.00
573;DHT22;271;51.114;13.780;2023-08-17T08:53:18;31.70;1.00
573;DHT22;271;51.114;13.780;2023-08-17T08:56:10;31.10;1.00
573;DHT22;271;51.114;13.780;2023-08-17T08:59:01;30.60;1.00
573;DHT22;271;51.114;13.780;2023-08-17T09:01:49;30.60;1.00
573;DHT22;271;51.114;13.780;2023-08-17T09:04:37;30.70;1.00
573;DHT22;271;51.114;13.780;2023-08-17T09:07:26;30.70;1.00
573;DHT22;271;51.114;13.780;2023-08-17T09:10:16;30.80;1.00
573;DHT22;271;51.114;13.780;2023-08-17T09:13:04;31.50;1.00
573;DHT22;271;51.114;13.780;2023-08-17T09:15:53;31.70;1.00
573;DHT22;271;51.114;13.780;2023-08-17T09:18:42;31.10;1.00
573;DHT22;271;51.114;13.780;2023-08-17T09:21:31;30.60;1.00
573;DHT22;271;51.114;13.780;2023-08-17T09:24:19;30.50;1.00
573;DHT22;271;51.114;13.780;2023-08-17T09:27:12;30.20;1.00
573;DHT22;271;51.114;13.780;2023-08-17T09:30:04;29.90;1.00
573;DHT22;271;51.114;13.780;2023-08-17T09:32:54;30.00;1.00
573;DHT22;271;51.114;13.780;2023-08-17T09:35:42;30.50;1.00
573;DHT22;271;51.114;13.780;2023-08-17T09:38:30;30.90;1.00
573;DHT22;271;51.114;13.780;2023-08-17T09:41:18;31.20;1.00
573;DHT22;271;51.114;13.780;2023-08-17T09:44:06;31.20;1.00
573;DHT22;271;51.114;13.780;2023-08-17T09:46:55;30.80;1.00
573;DHT22;271;51.114;13.780;2023-08-17T09:49:48;30.60;1.00
573;DHT22;271;51.114;13.780;2023-08-17T09:52:39;30.70;1.00
573;DHT22;271;51.114;13.780;2023-08-17T09:55:27;30.60;1.00
573;DHT22;271;51.114;13.780;2023-08-17T09:58:16;30.60;1.00
573;DHT22;271;51.114;13.780;2023-08-17T10:01:04;30.60;1.00
573;DHT22;271;51.114;13.780;2023-08-17T10:03:53;30.90;1.00
573;DHT22;271;51.114;13.780;2023-08-17T10:06:45;31.20;1.00
573;DHT22;271;51.114;13.780;2023-08-17T10:09:38;31.40;1.00
573;DHT22;271;51.114;13.780;2023-08-17T10:12:28;31.40;1.00
573;DHT22;271;51.114;13.780;2023-08-17T10:15:19;31.30;1.00
573;DHT22;271;51.114;13.780;2023-08-17T10:18:15;31.50;1.00
573;DHT22;271;51.114;13.780;2023-08-17T10:21:07;31.60;1.00
573;DHT22;271;51.114;13.780;2023-08-17T10:23:57;31.70;1.00
573;DHT22;271;51.114;13.780;2023-08-17T10:26:45;31.80;1.00
573;DHT22;271;51.114;13.780;2023-08-17T10:29:33;31.40;1.00
573;DHT22;271;51.114;13.780;2023-08-17T10:32:23;31.50;1.00
573;DHT22;271;51.114;13.780;2023-08-17T10:35:11;32.00;1.00
573;DHT22;271;51.114;13.780;2023-08-17T10:38:00;32.00;1.00
573;DHT22;271;51.114;13.780;2023-08-17T10:41:08;32.10;1.00
573;DHT22;271;51.114;13.780;2023-08-17T10:43:57;32.30;1.00
573;DHT22;271;51.114;13.780;2023-08-17T10:46:45;32.40;1.00
573;DHT22;271;51.114;13.780;2023-08-17T10:49:34;32.40;1.00
573;DHT22;271;51.114;13.780;2023-08-17T10:52:27;32.00;1.00
573;DHT22;271;51.114;13.780;2023-08-17T10:55:15;32.00;1.00
573;DHT22;271;51.114;13.780;2023-08-17T10:58:04;31.90;1.00
573;DHT22;271;51.114;13.780;2023-08-17T11:00:55;31.90;1.00
573;DHT22;271;51.114;13.780;2023-08-17T11:03:48;31.70;1.00
573;DHT22;271;51.114;13.780;2023-08-17T11:07:02;31.50;1.00
573;DHT22;271;51.114;13.780;2023-08-17T11:09:50;31.60;1.00
573;DHT22;271;51.114;13.780;2023-08-17T11:12:41;31.50;1.00
573;DHT22;271;51.114;13.780;2023-08-17T11:15:41;31.20;1.00
573;DHT22;271;51.114;13.780;2023-08-17T11:18:31;31.10;1.00
573;DHT22;271;51.114;13.780;2023-08-17T11:21:19;31.00;1.00
573;DHT22;271;51.114;13.780;2023-08-17T11:24:10;30.70;1.00
573;DHT22;271;51.114;13.780;2023-08-17T11:26:58;30.60;1.00
573;DHT22;271;51.114;13.780;2023-08-17T11:29:45;30.60;1.00
573;DHT22;271;51.114;13.780;2023-08-17T11:32:34;30.20;1.00
573;DHT22;271;51.114;13.780;2023-08-17T11:35:22;30.00;1.00
573;DHT22;271;51.114;13.780;2023-08-17T11:38:10;30.00;1.00
573;DHT22;271;51.114;13.780;2023-08-17T11:40:58;29.70;1.00
573;DHT22;271;51.114;13.780;2023-08-17T11:43:46;29.50;1.00
573;DHT22;271;51.114;13.780;2023-08-17T11:46:33;29.40;1.00
573;DHT22;271;51.114;13.780;2023-08-17T11:49:23;29.40;1.00
573;DHT22;271;51.114;13.780;2023-08-17T11:52:11;29.50;1.00
573;DHT22;271;51.114;13.780;2023-08-17T11:54:59;29.60;1.00
573;DHT22;271;51.114;13.780;2023-08-17T11:57:46;29.80;1.00
573;DHT22;271;51.114;13.780;2023-08-17T12:00:39;29.70;1.00
573;DHT22;271;51.114;13.780;2023-08-17T12:03:33;29.80;1.00
573;DHT22;271;51.114;13.780;2023-08-17T12:06:22;29.50;1.00
573;DHT22;271;51.114;13.780;2023-08-17T12:09:11;29.50;1.00
573;DHT22;271;51.114;13.780;2023-08-17T12:12:00;29.50;1.00
573;DHT22;271;51.114;13.780;2023-08-17T12:14:49;29.50;1.00
573;DHT22;271;51.114;13.780;2023-08-17T12:17:43;29.50;1.00
573;DHT22;271;51.114;13.780;2023-08-17T12:20:33;29.60;1.00
573;DHT22;271;51.114;13.780;2023-08-17T12:23:23;29.70;1.00
573;DHT22;271;51.114;13.780;2023-08-17T12:26:18;29.60;1.00
573;DHT22;271;51.114;13.780;2023-08-17T12:29:06;29.80;1.00
573;DHT22;271;51.114;13.780;2023-08-17T12:31:57;29.80;1.00
573;DHT22;271;51.114;13.780;2023-08-17T12:34:45;29.80;1.00
573;DHT22;271;51.114;13.780;2023-08-17T12:37:33;29.90;1.00
573;DHT22;271;51.114;13.780;2023-08-17T12:40:22;29.80;1.00
573;DHT22;271;51.114;13.780;2023-08-17T12:43:10;29.80;1.00
573;DHT22;271;51.114;13.780;2023-08-17T12:45:58;30.00;1.00
573;DHT22;271;51.114;13.780;2023-08-17T12:48:46;30.10;1.00
573;DHT22;271;51.114;13.780;2023-08-17T12:51:34;30.00;1.00
573;DHT22;271;51.114;13.780;2023-08-17T12:54:21;30.00;1.00
573;DHT22;271;51.114;13.780;2023-08-17T12:57:11;30.00;1.00
573;DHT22;271;51.114;13.780;2023-08-17T12:59:58;30.10;1.00
573;DHT22;271;51.114;13.780;2023-08-17T13:02:46;30.20;1.00
573;DHT22;271;51.114;13.780;2023-08-17T13:05:37;30.40;1.00
573;DHT22;271;51.114;13.780;2023-08-17T13:08:26;30.40;1.00
573;DHT22;271;51.114;13.780;2023-08-17T13:11:17;30.40;1.00
573;DHT22;271;51.114;13.780;2023-08-17T13:14:06;30.50;1.00
573;DHT22;271;51.114;13.780;2023-08-17T13:16:54;30.40;1.00
573;DHT22;271;51.114;13.780;2023-08-17T13:19:41;30.40;1.00
573;DHT22;271;51.114;13.780;2023-08-17T13:22:31;30.20;1.00
573;DHT22;271;51.114;13.780;2023-08-17T13:25:19;30.30;1.00
573;DHT22;271;51.114;13.780;2023-08-17T13:28:08;30.40;1.00
573;DHT22;271;51.114;13.780;2023-08-17T13:30:57;30.60;1.00
573;DHT22;271;51.114;13.780;2023-08-17T13:33:45;30.50;1.00
573;DHT22;271;51.114;13.780;2023-08-17T13:36:33;30.60;1.00
573;DHT22;271;51.114;13.780;2023-08-17T13:39:22;30.60;1.00
573;DHT22;271;51.114;13.780;2023-08-17T13:42:10;30.50;1.00
573;DHT22;271;51.114;13.780;2023-08-17T13:44:57;30.40;1.00
573;DHT22;271;51.114;13.780;2023-08-17T13:47:46;30.30;1.00
573;DHT22;271;51.114;13.780;2023-08-17T13:50:37;30.20;1.00
573;DHT22;271;51.114;13.780;2023-08-17T13:53:25;30.30;1.00
573;DHT22;271;51.114;13.780;2023-08-17T13:56:13;30.30;1.00
573;DHT22;271;51.114;13.780;2023-08-17T13:59:00;30.40;1.00
573;DHT22;271;51.114;13.780;2023-08-17T14:01:48;30.60;1.00
573;DHT22;271;51.114;13.780;2023-08-17T14:04:38;30.60;1.00
573;DHT22;271;51.114;13.780;2023-08-17T14:07:25;30.60;1.00
573;DHT22;271;51.114;13.780;2023-08-17T14:10:13;30.50;1.00
573;DHT22;271;51.114;13.780;2023-08-17T14:13:01;30.60;1.00
573;DHT22;271;51.114;13.780;2023-08-17T14:15:48;30.50;1.00
573;DHT22;271;51.114;13.780;2023-08-17T14:18:36;30.40;1.00
573;DHT22;271;51.114;13.780;2023-08-17T14:21:25;30.30;1.00
573;DHT22;271;51.114;13.780;2023-08-17T14:24:13;30.30;1.00
573;DHT22;271;51.114;13.780;2023-08-17T14:27:01;30.20;1.00
573;DHT22;271;51.114;13.780;2023-08-17T14:29:48;30.20;1.00
573;DHT22;271;51.114;13.780;2023-08-17T14:32:36;30.20;1.00
573;DHT22;271;51.114;13.780;2023-08-17T14:35:24;30.20;1.00
573;DHT22;271;51.114;13.780;2023-08-17T14:38:13;30.10;1.00
573;DHT22;271;51.114;13.780;2023-08-17T14:41:01;30.10;1.00
573;DHT22;271;51.114;13.780;2023-08-17T14:43:50;29.90;1.00
573;DHT22;271;51.114;13.780;2023-08-17T14:46:38;29.80;1.00
573;DHT22;271;51.114;13.780;2023-08-17T14:49:29;29.80;1.00
573;DHT22;271;51.114;13.780;2023-08-17T14:52:17;29.70;1.00
573;DHT22;271;51.114;13.780;2023-08-17T14:55:06;29.60;1.00
573;DHT22;271;51.114;13.780;2023-08-17T14:57:55;29.60;1.00
573;DHT22;271;51.114;13.780;2023-08-17T15:00:43;29.50;1.00
573;DHT22;271;51.114;13.780;2023-08-17T15:03:31;29.60;1.00
573;DHT22;271;51.114;13.780;2023-08-17T15:06:18;29.50;1.00
573;DHT22;271;51.114;13.780;2023-08-17T15:09:10;29.50;1.00
573;DHT22;271;51.114;13.780;2023-08-17T15:11:59;29.40;1.00
573;DHT22;271;51.114;13.780;2023-08-17T15:14:46;29.30;1.00
573;DHT22;271;51.114;13.780;2023-08-17T15:17:34;29.40;1.00
573;DHT22;271;51.114;13.780;2023-08-17T15:20:22;29.50;1.00
573;DHT22;271;51.114;13.780;2023-08-17T15:23:10;29.30;1.00
573;DHT22;271;51.114;13.780;2023-08-17T15:25:58;29.30;1.00
573;DHT22;271;51.114;13.780;2023-08-17T15:28:47;29.30;1.00
573;DHT22;271;51.114;13.780;2023-08-17T15:31:34;29.30;1.00
573;DHT22;271;51.114;13.780;2023-08-17T15:34:22;29.30;1.00
573;DHT22;271;51.114;13.780;2023-08-17T15:37:10;29.20;1.00
573;DHT22;271;51.114;13.780;2023-08-17T15:39:58;29.10;1.00
573;DHT22;271;51.114;13.780;2023-08-17T15:42:45;29.00;1.00
573;DHT22;271;51.114;13.780;2023-08-17T15:45:35;28.90;1.00
573;DHT22;271;51.114;13.780;2023-08-17T15:48:22;28.80;1.00
573;DHT22;271;51.114;13.780;2023-08-17T15:51:10;28.80;1.00
573;DHT22;271;51.114;13.780;2023-08-17T15:53:58;28.70;1.00
573;DHT22;271;51.114;13.780;2023-08-17T15:56:45;28.60;1.00
573;DHT22;271;51.114;13.780;2023-08-17T15:59:33;28.50;1.00
573;DHT22;271;51.114;13.780;2023-08-17T16:02:23;28.50;1.00
573;DHT22;271;51.114;13.780;2023-08-17T16:05:11;28.40;1.00
573;DHT22;271;51.114;13.780;2023-08-17T16:07:59;28.40;1.00
573;DHT22;271;51.114;13.780;2023-08-17T16:10:47;28.40;1.00
573;DHT22;271;51.114;13.780;2023-08-17T16:13:34;28.40;1.00
573;DHT22;271;51.114;13.780;2023-08-17T16:16:22;28.30;1.00
573;DHT22;271;51.114;13.780;2023-08-17T16:19:11;28.30;1.00
573;DHT22;271;51.114;13.780;2023-08-17T16:21:59;28.20;1.00
573;DHT22;271;51.114;13.780;2023-08-17T16:24:46;28.20;1.00
573;DHT22;271;51.114;13.780;2023-08-17T16:27:34;28.10;1.00
573;DHT22;271;51.114;13.780;2023-08-17T16:30:22;28.20;1.00
573;DHT22;271;51.114;13.780;2023-08-17T16:33:10;28.10;1.00
573;DHT22;271;51.114;13.780;2023-08-17T16:35:59;28.00;1.00
573;DHT22;271;51.114;13.780;2023-08-17T16:38:46;27.90;1.00
573;DHT22;271;51.114;13.780;2023-08-17T16:41:34;27.70;1.00
573;DHT22;271;51.114;13.780;2023-08-17T16:44:22;27.70;1.00
573;DHT22;271;51.114;13.780;2023-08-17T16:47:10;27.70;1.00
573;DHT22;271;51.114;13.780;2023-08-17T16:49:58;27.60;1.00
573;DHT22;271;51.114;13.780;2023-08-17T16:52:49;27.40;1.00
573;DHT22;271;51.114;13.780;2023-08-17T16:55:37;27.20;1.00
573;DHT22;271;51.114;13.780;2023-08-17T16:58:24;27.10;1.00
573;DHT22;271;51.114;13.780;2023-08-17T17:01:12;27.10;1.00
573;DHT22;271;51.114;13.780;2023-08-17T17:04:00;27.00;1.00
573;DHT22;271;51.114;13.780;2023-08-17T17:06:47;26.90;1.00
573;DHT22;271;51.114;13.780;2023-08-17T17:09:38;26.80;1.00
573;DHT22;271;51.114;13.780;2023-08-17T17:12:26;26.80;1.00
573;DHT22;271;51.114;13.780;2023-08-17T17:15:14;26.80;1.00
573;DHT22;271;51.114;13.780;2023-08-17T17:18:02;26.80;1.00
573;DHT22;271;51.114;13.780;2023-08-17T17:20:49;26.70;1.00
573;DHT22;271;51.114;13.780;2023-08-17T17:23:38;26.70;1.00
573;DHT22;271;51.114;13.780;2023-08-17T17:26:27;26.70;1.00
573;DHT22;271;51.114;13.780;2023-08-17T17:29:15;26.70;1.00
573;DHT22;271;51.114;13.780;2023-08-17T17:32:03;26.60;1.00
573;DHT22;271;51.114;13.780;2023-08-17T17:34:50;26.60;1.00
573;DHT22;271;51.114;13.780;2023-08-17T17:37:38;26.60;1.00
573;DHT22;271;51.114;13.780;2023-08-17T17:40:26;26.70;1.00
573;DHT22;271;51.114;13.780;2023-08-17T17:43:15;26.60;1.00
573;DHT22;271;51.114;13.780;2023-08-17T17:46:03;26.50;1.00
573;DHT22;271;51.114;13.780;2023-08-17T17:48:51;26.50;1.00
573;DHT22;271;51.114;13.780;2023-08-17T17:51:39;26.40;1.00
573;DHT22;271;51.114;13.780;2023-08-17T17:54:27;26.40;1.00
573;DHT22;271;51.114;13.780;2023-08-17T17:57:15;26.30;1.00
573;DHT22;271;51.114;13.780;2023-08-17T18:00:06;26.30;1.00
573;DHT22;271;51.114;13.780;2023-08-17T18:02:54;26.20;1.00
573;DHT22;271;51.114;13.780;2023-08-17T18:05:42;26.20;1.00
573;DHT22;271;51.114;13.780;2023-08-17T18:08:30;26.20;1.00
573;DHT22;271;51.114;13.780;2023-08-17T18:11:20;26.00;1.00
573;DHT22;271;51.114;13.780;2023-08-17T18:14:08;26.00;1.00
573;DHT22;271;51.114;13.780;2023-08-17T18:16:57;26.00;1.00
573;DHT22;271;51.114;13.780;2023-08-17T18:19:45;26.00;1.00
573;DHT22;271;51.114;13.780;2023-08-17T18:22:32;26.00;1.00
573;DHT22;271;51.114;13.780;2023-08-17T18:25:20;26.00;1.00
573;DHT22;271;51.114;13.780;2023-08-17T18:28:08;25.90;1.00
573;DHT22;271;51.114;13.780;2023-08-17T18:30:57;25.80;1.00
573;DHT22;271;51.114;13.780;2023-08-17T18:33:46;25.80;1.00
573;DHT22;271;51.114;13.780;2023-08-17T18:36:34;25.70;1.00
573;DHT22;271;51.114;13.780;2023-08-17T18:39:21;25.70;1.00
573;DHT22;271;51.114;13.780;2023-08-17T18:42:09;25.60;1.00
573;DHT22;271;51.114;13.780;2023-08-17T18:44:57;25.50;1.00
573;DHT22;271;51.114;13.780;2023-08-17T18:47:45;25.50;1.00
573;DHT22;271;51.114;13.780;2023-08-17T18:50:35;25.50;1.00
573;DHT22;271;51.114;13.780;2023-08-17T18:53:22;25.50;1.00
573;DHT22;271;51.114;13.780;2023-08-17T18:56:10;25.50;1.00